Accueil
METAR-TAF:

METAR-TAF

Aéroports :

Aéroport de Londres-City

Londres, Angleterre

latitude: 51-30N, longitude: 000-03E, altitude: 5 m

Observation

Le bulletin a été fait il y a 28 minutes, à 02:50 UTC
Vent 2 kt de direction variable
Température 5°C
Humidité 87%
Pression 1031 hPa
Visibilité 10 km ou plus

METAR: EGLC 240250Z AUTO VRB02KT 9999 NCD 05/03 Q1031

Heure: 03:18 (03:18 UTC)

Prévision

Le bulletin a été fait il y a 1 heure et 21 minutes, à 01:57 UTC
Prévision valable du 24 à 03 UTC au 24 à 12 UTC
Vent 3 kt de direction variable
Visibilité 10 km ou plus
Nuages épars à une hauteur de 4000 ft
Evoluant progressivement
du 24 à 07 UTC au 24 à 09 UTC
Vent 10 kt de nord/nord-ouest

TAF: EGLC 240157Z 2403/2412 VRB03KT 9999 SCT040 BECMG 2407/2409 33010KT

Observations et prévisions météorologiques de plus de 4000 aéroports (messages METAR et TAF).

Les stations disponibles sont représentées par des disques jaunes et rouges sur la carte.

Passer la souris dessus pour voir le nom de la station.

Cliquer dessus pour voir les observations et prévisions météorologiques.

Pour changer de carte: cliquez sur les boutons verts avec une croix noire pour zoomer, sur le bouton vert avec un tiret pour effectuer un zoom arrière, ou sur les flèches vertes pour les cartes adjacentes.


METAR-TAF: